createdAt,value
2022-09-22T00:01:34.061Z,2.40
2022-09-22T00:04:07.220Z,1.83
2022-09-22T00:06:41.561Z,1.70
2022-09-22T00:09:14.580Z,2.33
2022-09-22T00:11:44.537Z,3.05
2022-09-22T00:14:38.439Z,2.30
2022-09-22T00:17:06.682Z,2.28
2022-09-22T00:19:37.056Z,1.70
2022-09-22T00:22:06.129Z,2.85
2022-09-22T00:24:34.860Z,2.22
2022-09-22T00:27:03.465Z,2.75
2022-09-22T00:29:31.030Z,2.30
2022-09-22T00:32:01.311Z,2.47
2022-09-22T00:34:32.493Z,2.65
2022-09-22T00:37:00.011Z,2.75
2022-09-22T00:39:30.810Z,2.38
2022-09-22T00:41:58.306Z,2.25
2022-09-22T00:44:40.768Z,2.08
2022-09-22T00:47:41.099Z,2.03
2022-09-22T00:50:17.816Z,1.85
2022-09-22T00:52:53.581Z,2.13
2022-09-22T00:55:55.640Z,1.88
2022-09-22T00:58:32.702Z,2.30
2022-09-22T01:01:00.956Z,2.13
2022-09-22T01:03:30.124Z,2.00
2022-09-22T01:06:01.263Z,2.30
2022-09-22T01:08:31.495Z,2.08
2022-09-22T01:11:00.043Z,1.95
2022-09-22T01:14:01.601Z,2.47
2022-09-22T01:16:44.417Z,2.50
2022-09-22T01:19:44.949Z,2.17
2022-09-22T01:22:50.110Z,2.17
2022-09-22T01:25:50.475Z,2.30
2022-09-22T01:28:30.546Z,2.42
2022-09-22T01:31:11.680Z,2.25
2022-09-22T01:34:05.465Z,2.15
2022-09-22T01:36:47.523Z,2.33
2022-09-22T01:39:18.568Z,2.10
2022-09-22T01:42:07.293Z,2.28
2022-09-22T01:44:37.245Z,2.67
2022-09-22T01:47:28.144Z,1.80
2022-09-22T01:50:02.860Z,2.30
2022-09-22T01:52:33.583Z,2.13
2022-09-22T01:55:07.339Z,1.95
2022-09-22T01:57:40.695Z,2.08
2022-09-22T02:00:10.004Z,2.03
2022-09-22T02:03:11.065Z,2.30
2022-09-22T02:05:57.048Z,1.90
2022-09-22T02:08:32.901Z,1.80
2022-09-22T02:11:09.802Z,2.47
2022-09-22T02:13:37.941Z,2.08
2022-09-22T02:16:06.857Z,2.22
2022-09-22T02:19:10.429Z,1.80
2022-09-22T02:21:42.036Z,2.17
2022-09-22T02:24:37.682Z,1.80
2022-09-22T02:27:20.654Z,2.17
2022-09-22T02:29:56.905Z,1.95
2022-09-22T02:32:25.995Z,2.22
2022-09-22T02:34:55.679Z,1.95
2022-09-22T02:37:31.667Z,2.40
2022-09-22T02:40:17.856Z,1.80
2022-09-22T02:43:12.765Z,1.80
2022-09-22T02:45:52.840Z,1.60
2022-09-22T02:48:23.857Z,1.80
2022-09-22T02:50:54.240Z,1.50
2022-09-22T02:53:21.845Z,2.00
2022-09-22T02:55:49.817Z,1.40
2022-09-22T02:58:17.470Z,1.73
2022-09-22T03:00:45.702Z,1.83
2022-09-22T03:03:13.257Z,1.60
2022-09-22T03:05:40.876Z,1.70
2022-09-22T03:08:08.430Z,1.67
2022-09-22T03:10:36.404Z,1.70
2022-09-22T03:13:19.183Z,1.90
2022-09-22T03:15:47.140Z,1.60
2022-09-22T03:18:15.068Z,1.67
2022-09-22T03:20:42.920Z,1.80
2022-09-22T03:23:10.483Z,1.50
2022-09-22T03:25:38.084Z,1.50
2022-09-22T03:28:05.538Z,1.45
2022-09-22T03:30:33.115Z,1.30
2022-09-22T03:33:00.619Z,1.50
2022-09-22T03:35:28.182Z,1.45
2022-09-22T03:37:55.617Z,1.08
2022-09-22T03:40:23.431Z,1.40
2022-09-22T03:42:51.250Z,1.50
2022-09-22T03:45:19.349Z,1.27
2022-09-22T03:47:46.848Z,1.55
2022-09-22T03:50:14.466Z,1.50
2022-09-22T03:52:43.932Z,1.25
2022-09-22T03:55:12.416Z,1.13
2022-09-22T03:57:40.954Z,1.23
2022-09-22T04:00:09.207Z,1.48
2022-09-22T04:02:42.359Z,1.60
2022-09-22T04:05:10.912Z,1.40
2022-09-22T04:07:39.014Z,1.27
2022-09-22T04:10:07.867Z,1.50
2022-09-22T04:12:37.261Z,1.25
2022-09-22T04:15:05.443Z,1.13
2022-09-22T04:17:33.058Z,1.40
2022-09-22T04:20:01.155Z,1.40
2022-09-22T04:22:29.016Z,1.60
2022-09-22T04:24:57.592Z,1.55
2022-09-22T04:27:25.763Z,1.10
2022-09-22T04:29:53.314Z,1.20
2022-09-22T04:32:20.828Z,1.50
2022-09-22T04:34:48.940Z,1.60
2022-09-22T04:37:16.496Z,1.40
2022-09-22T04:39:44.108Z,1.70
2022-09-22T04:42:11.666Z,1.45
2022-09-22T04:44:41.297Z,1.92
2022-09-22T04:47:10.030Z,1.60
2022-09-22T04:49:38.888Z,1.70
2022-09-22T04:52:08.153Z,1.92
2022-09-22T04:54:36.079Z,1.90
2022-09-22T04:57:05.750Z,1.85
2022-09-22T04:59:33.283Z,1.98
2022-09-22T05:02:01.122Z,1.83
2022-09-22T05:04:28.856Z,2.28
2022-09-22T05:06:56.388Z,1.90
2022-09-22T05:09:23.890Z,1.83
2022-09-22T05:11:51.493Z,1.98
2022-09-22T05:14:22.750Z,1.60
2022-09-22T05:16:53.302Z,1.40
2022-09-22T05:19:21.343Z,1.80
2022-09-22T05:21:48.887Z,1.40
2022-09-22T05:24:16.450Z,1.40
2022-09-22T05:26:44.019Z,1.30
2022-09-22T05:29:11.605Z,1.40
2022-09-22T05:31:39.161Z,1.40
2022-09-22T05:34:06.720Z,1.90
2022-09-22T05:36:34.269Z,2.05
2022-09-22T05:39:01.724Z,1.40
2022-09-22T05:41:30.644Z,1.42
2022-09-22T05:43:58.113Z,1.98
2022-09-22T05:46:25.630Z,1.40
2022-09-22T05:48:53.279Z,2.10
2022-09-22T05:51:20.850Z,1.58
2022-09-22T05:53:48.489Z,1.58
2022-09-22T05:56:15.967Z,1.52
2022-09-22T05:58:43.442Z,1.95
2022-09-22T06:01:11.072Z,2.05
2022-09-22T06:03:38.804Z,1.73
2022-09-22T06:06:06.443Z,1.80
2022-09-22T06:08:34.093Z,1.58
2022-09-22T06:11:01.784Z,2.00
2022-09-22T06:13:30.074Z,2.28
2022-09-22T06:15:57.691Z,1.77
2022-09-22T06:18:26.203Z,1.77
2022-09-22T06:20:57.404Z,1.65
2022-09-22T06:23:26.475Z,1.85
2022-09-22T06:25:58.392Z,1.27
2022-09-22T06:28:26.008Z,1.63
2022-09-22T06:30:53.504Z,1.80
2022-09-22T06:33:21.819Z,1.50
2022-09-22T06:35:49.662Z,1.60
2022-09-22T06:38:17.284Z,1.42
2022-09-22T06:40:44.925Z,1.40
2022-09-22T06:43:20.507Z,1.80
2022-09-22T06:45:48.622Z,1.17
2022-09-22T06:48:16.242Z,2.05
2022-09-22T06:50:49.528Z,1.60
2022-09-22T06:53:20.079Z,1.50
2022-09-22T06:55:51.006Z,1.30
2022-09-22T06:58:21.894Z,1.50
2022-09-22T07:00:49.850Z,1.52
2022-09-22T07:03:23.101Z,1.70
2022-09-22T07:05:53.984Z,1.75
2022-09-22T07:08:23.071Z,1.75
2022-09-22T07:11:10.194Z,1.60
2022-09-22T07:13:43.090Z,1.50
2022-09-22T07:16:15.940Z,1.35
2022-09-22T07:18:45.884Z,1.60
2022-09-22T07:21:22.728Z,1.50
2022-09-22T07:23:52.006Z,1.63
2022-09-22T07:26:22.264Z,1.35
2022-09-22T07:28:53.791Z,1.40
2022-09-22T07:31:28.422Z,1.30
2022-09-22T07:33:57.170Z,1.50
2022-09-22T07:36:26.278Z,1.63
2022-09-22T07:38:55.896Z,1.30
2022-09-22T07:41:27.602Z,1.40
2022-09-22T07:43:57.652Z,1.20
2022-09-22T07:46:25.241Z,1.20
2022-09-22T07:48:52.865Z,1.10
2022-09-22T07:51:23.544Z,1.38
2022-09-22T07:54:12.670Z,1.30
2022-09-22T07:56:44.693Z,1.38
2022-09-22T07:59:16.840Z,1.23
2022-09-22T08:01:47.617Z,1.10
2022-09-22T08:04:18.949Z,0.88
2022-09-22T08:06:48.805Z,1.00
2022-09-22T08:09:18.302Z,1.00
2022-09-22T08:11:48.768Z,1.10
2022-09-22T08:14:17.511Z,1.08
2022-09-22T08:16:46.030Z,1.30
2022-09-22T08:19:14.641Z,1.00
2022-09-22T08:21:49.239Z,0.90
2022-09-22T08:24:21.537Z,0.90
2022-09-22T08:26:52.366Z,0.90
2022-09-22T08:29:21.186Z,1.13
2022-09-22T08:31:49.667Z,0.88
2022-09-22T08:34:18.291Z,0.80
2022-09-22T08:36:48.745Z,1.00
2022-09-22T08:39:17.870Z,0.90
2022-09-22T08:41:48.394Z,0.90
2022-09-22T08:44:23.051Z,0.90
2022-09-22T08:46:52.936Z,0.90
2022-09-22T08:50:05.860Z,1.00
2022-09-22T08:52:41.265Z,1.05
2022-09-22T08:55:43.200Z,1.10
2022-09-22T08:58:19.295Z,0.95
2022-09-22T09:03:34.093Z,0.90
2022-09-22T09:06:09.123Z,0.98
2022-09-22T09:08:51.693Z,0.88
2022-09-22T09:11:40.358Z,0.93
2022-09-22T09:14:12.266Z,1.00
2022-09-22T09:16:59.370Z,0.90
2022-09-22T09:19:45.072Z,0.75
2022-09-22T09:22:25.367Z,1.03
2022-09-22T09:27:50.299Z,1.02
2022-09-22T09:30:22.304Z,0.88
2022-09-22T09:33:04.760Z,1.08
2022-09-22T09:35:39.512Z,1.08
2022-09-22T09:38:14.807Z,0.70
2022-09-22T09:40:44.758Z,0.90
2022-09-22T09:43:12.385Z,1.00
2022-09-22T09:45:54.379Z,0.70
2022-09-22T09:48:40.941Z,0.88
2022-09-22T09:53:45.493Z,0.80
2022-09-22T09:56:25.402Z,0.80
2022-09-22T09:59:17.204Z,0.73
2022-09-22T10:01:47.383Z,0.90
2022-09-22T10:04:37.347Z,0.93
2022-09-22T10:07:18.679Z,0.82
2022-09-22T10:09:49.008Z,0.80
2022-09-22T10:12:27.545Z,0.77
2022-09-22T10:14:57.479Z,0.77
2022-09-22T10:17:39.601Z,0.88
2022-09-22T10:20:28.615Z,0.80
2022-09-22T10:23:16.806Z,0.68
2022-09-22T10:25:44.350Z,0.60
2022-09-22T10:28:22.183Z,0.80
2022-09-22T10:31:02.310Z,0.90
2022-09-22T10:33:30.552Z,0.90
2022-09-22T10:36:13.331Z,0.75
2022-09-22T10:38:43.357Z,0.60
2022-09-22T10:41:11.061Z,0.85
2022-09-22T10:43:46.495Z,0.60
2022-09-22T10:46:37.079Z,1.10
2022-09-22T10:49:23.911Z,0.90
2022-09-22T10:51:55.044Z,0.82
2022-09-22T10:54:25.489Z,1.05
2022-09-22T10:56:59.901Z,0.77
2022-09-22T10:59:44.506Z,0.57
2022-09-22T11:02:27.188Z,0.82
2022-09-22T11:05:53.305Z,0.70
2022-09-22T11:08:59.707Z,0.68
2022-09-22T11:12:16.468Z,0.63
2022-09-22T11:15:24.831Z,1.00
2022-09-22T11:18:08.389Z,0.82
2022-09-22T11:20:48.299Z,1.00
2022-09-22T11:23:53.171Z,0.80
2022-09-22T11:26:40.661Z,0.73
2022-09-22T11:29:20.474Z,0.55
2022-09-22T11:32:08.092Z,0.63
2022-09-22T11:34:50.278Z,0.70
2022-09-22T11:37:26.873Z,0.85
2022-09-22T11:40:27.329Z,0.63
2022-09-22T11:43:23.446Z,0.45
2022-09-22T11:46:14.949Z,0.55
2022-09-22T11:48:57.822Z,0.70
2022-09-22T11:51:43.415Z,0.40
2022-09-22T11:54:46.057Z,0.68
2022-09-22T11:57:23.884Z,1.00
2022-09-22T12:00:07.110Z,0.55
2022-09-22T12:02:55.150Z,0.73
2022-09-22T12:05:31.856Z,0.80
2022-09-22T12:08:13.832Z,0.80
2022-09-22T12:10:44.799Z,0.40
2022-09-22T12:13:21.443Z,0.55
2022-09-22T12:15:54.529Z,0.45
2022-09-22T12:18:40.620Z,0.28
2022-09-22T12:21:31.558Z,0.40
2022-09-22T12:24:07.608Z,0.40
2022-09-22T12:29:19.047Z,0.50
2022-09-22T12:31:49.219Z,0.52
2022-09-22T12:34:23.387Z,0.35
2022-09-22T12:36:57.238Z,0.65
2022-09-22T12:39:31.091Z,0.60
2022-09-22T12:42:06.959Z,0.60
2022-09-22T12:44:45.978Z,0.43
2022-09-22T12:47:33.627Z,0.90
2022-09-22T12:50:06.907Z,0.70
2022-09-22T12:52:37.234Z,0.60
2022-09-22T12:55:30.294Z,0.50
2022-09-22T12:58:00.120Z,0.60
2022-09-22T13:00:39.647Z,0.63
2022-09-22T13:03:28.471Z,0.60
2022-09-22T13:05:58.854Z,0.55
2022-09-22T13:08:49.124Z,0.60
2022-09-22T13:11:16.721Z,0.90
2022-09-22T13:13:47.655Z,0.95
2022-09-22T13:16:15.240Z,0.60
2022-09-22T13:19:04.199Z,0.50
2022-09-22T13:21:33.527Z,0.80
2022-09-22T13:24:03.463Z,0.40
2022-09-22T13:26:32.513Z,0.57
2022-09-22T13:29:16.543Z,0.68
2022-09-22T13:31:44.097Z,0.57
2022-09-22T13:34:17.695Z,0.50
2022-09-22T13:36:45.835Z,0.80
2022-09-22T13:39:22.528Z,0.43
2022-09-22T13:41:54.713Z,0.50
2022-09-22T13:44:28.754Z,0.80
2022-09-22T13:46:58.482Z,1.08
2022-09-22T13:49:39.050Z,0.82
2022-09-22T13:52:21.759Z,0.70
2022-09-22T13:54:59.582Z,0.50
2022-09-22T13:57:33.933Z,0.60
2022-09-22T14:00:02.104Z,0.70
2022-09-22T14:02:32.793Z,0.60
2022-09-22T14:05:04.744Z,0.60
2022-09-22T14:07:45.026Z,0.60
2022-09-22T14:10:19.683Z,0.80
2022-09-22T14:12:48.397Z,0.63
2022-09-22T14:15:37.914Z,0.60
2022-09-22T14:18:28.015Z,0.95
2022-09-22T14:20:58.237Z,1.00
2022-09-22T14:23:33.415Z,0.90
2022-09-22T14:26:15.516Z,0.90
2022-09-22T14:28:43.118Z,0.80
2022-09-22T14:31:20.833Z,0.80
2022-09-22T14:33:48.753Z,0.90
2022-09-22T14:36:20.160Z,0.98
2022-09-22T14:39:03.832Z,0.90
2022-09-22T14:41:37.370Z,0.82
2022-09-22T14:44:32.904Z,0.75
2022-09-22T14:47:28.059Z,1.23
2022-09-22T14:50:37.674Z,0.55
2022-09-22T14:53:22.222Z,0.70
2022-09-22T14:55:55.959Z,0.63
2022-09-22T14:58:36.194Z,0.90
2022-09-22T15:01:36.334Z,0.80
2022-09-22T15:04:15.227Z,0.70
2022-09-22T15:06:43.815Z,0.77
2022-09-22T15:09:31.837Z,0.57
2022-09-22T15:12:02.241Z,0.77
2022-09-22T15:14:42.650Z,0.80
2022-09-22T15:17:56.846Z,0.98
2022-09-22T15:20:44.674Z,0.88
2022-09-22T15:23:42.046Z,0.88
2022-09-22T15:26:17.004Z,0.70
2022-09-22T15:28:45.158Z,0.77
2022-09-22T15:31:39.048Z,0.60
2022-09-22T15:34:07.605Z,0.80
2022-09-22T15:36:44.178Z,0.70
2022-09-22T15:39:23.148Z,0.90
2022-09-22T15:41:54.648Z,0.70
2022-09-22T15:44:22.196Z,1.20
2022-09-22T15:46:53.266Z,1.40
2022-09-22T15:49:26.359Z,1.10
2022-09-22T15:51:56.670Z,1.10
2022-09-22T15:54:26.336Z,1.10
2022-09-22T15:56:56.336Z,1.02
2022-09-22T15:59:29.084Z,0.93
2022-09-22T16:01:57.477Z,1.30
2022-09-22T16:04:30.075Z,1.00
2022-09-22T16:07:04.067Z,0.90
2022-09-22T16:09:32.165Z,1.10
2022-09-22T16:11:59.721Z,1.10
2022-09-22T16:14:29.734Z,1.05
2022-09-22T16:16:57.139Z,1.02
2022-09-22T16:19:24.727Z,0.85
2022-09-22T16:21:56.574Z,0.98
2022-09-22T16:24:26.441Z,0.90
2022-09-22T16:26:54.268Z,0.90
2022-09-22T16:29:22.293Z,1.08
2022-09-22T16:31:51.336Z,0.90
2022-09-22T16:34:18.947Z,1.02
2022-09-22T16:36:46.449Z,0.98
2022-09-22T16:39:13.924Z,1.10
2022-09-22T16:41:45.381Z,1.30
2022-09-22T16:44:13.694Z,1.20
2022-09-22T16:46:42.456Z,0.82
2022-09-22T16:49:16.289Z,1.20
2022-09-22T16:51:48.911Z,1.00
2022-09-22T16:54:17.920Z,1.02
2022-09-22T16:56:47.271Z,1.10
2022-09-22T16:59:19.493Z,1.40
2022-09-22T17:01:47.409Z,1.35
2022-09-22T17:04:16.628Z,1.42
2022-09-22T17:06:44.723Z,1.73
2022-09-22T17:09:14.344Z,1.60
2022-09-22T17:11:43.775Z,1.20
2022-09-22T17:14:15.487Z,1.67
2022-09-22T17:16:49.397Z,1.60
2022-09-22T17:19:20.098Z,1.73
2022-09-22T17:21:52.039Z,2.08
2022-09-22T17:24:19.617Z,2.10
2022-09-22T17:26:49.572Z,2.17
2022-09-22T17:29:25.150Z,2.15
2022-09-22T17:31:57.239Z,2.10
2022-09-22T17:34:26.045Z,2.03
2022-09-22T17:36:55.543Z,1.45
2022-09-22T17:39:24.634Z,1.70
2022-09-22T17:41:52.700Z,1.58
2022-09-22T17:44:24.265Z,1.70
2022-09-22T17:47:11.247Z,1.50
2022-09-22T17:49:58.111Z,2.00
2022-09-22T17:52:29.948Z,1.35
2022-09-22T17:55:09.346Z,1.83
2022-09-22T17:57:42.562Z,1.50
2022-09-22T18:00:13.358Z,1.52
2022-09-22T18:02:40.933Z,1.40
2022-09-22T18:05:11.009Z,1.48
2022-09-22T18:07:40.454Z,1.23
2022-09-22T18:10:14.417Z,1.40
2022-09-22T18:12:42.862Z,1.55
2022-09-22T18:15:13.443Z,1.27
2022-09-22T18:17:42.745Z,1.15
2022-09-22T18:20:18.152Z,1.40
2022-09-22T18:22:49.197Z,1.50
2022-09-22T18:25:19.672Z,1.42
2022-09-22T18:27:50.695Z,1.15
2022-09-22T18:30:19.444Z,1.15
2022-09-22T18:32:50.025Z,1.25
2022-09-22T18:35:18.638Z,1.40
2022-09-22T18:37:46.333Z,1.45
2022-09-22T18:40:14.068Z,1.83
2022-09-22T18:42:44.837Z,1.60
2022-09-22T18:45:14.324Z,1.60
2022-09-22T18:47:43.736Z,1.40
2022-09-22T18:50:12.740Z,1.70
2022-09-22T18:52:43.154Z,1.60
2022-09-22T18:55:14.215Z,2.15
2022-09-22T18:57:41.780Z,2.08
2022-09-22T19:00:11.180Z,1.98
2022-09-22T19:02:39.573Z,2.75
2022-09-22T19:05:07.415Z,2.35
2022-09-22T19:07:41.551Z,2.67
2022-09-22T19:10:18.720Z,2.90
2022-09-22T19:12:46.605Z,1.95
2022-09-22T19:15:18.154Z,2.30
2022-09-22T19:17:48.559Z,1.83
2022-09-22T19:20:23.364Z,1.98
2022-09-22T19:22:52.054Z,1.70
2022-09-22T19:25:21.544Z,1.80
2022-09-22T19:27:50.931Z,1.30
2022-09-22T19:30:22.852Z,1.50
2022-09-22T19:32:52.523Z,1.77
2022-09-22T19:35:20.694Z,1.75
2022-09-22T19:37:48.499Z,1.90
2022-09-22T19:40:18.973Z,1.67
2022-09-22T19:42:47.391Z,1.83
2022-09-22T19:45:15.060Z,1.45
2022-09-22T19:47:42.727Z,1.10
2022-09-22T19:50:10.288Z,1.48
2022-09-22T19:52:38.480Z,1.30
2022-09-22T19:55:07.643Z,1.20
2022-09-22T19:57:41.750Z,1.15
2022-09-22T20:00:18.045Z,1.30
2022-09-22T20:02:46.151Z,1.00
2022-09-22T20:05:21.911Z,1.40
2022-09-22T20:07:49.657Z,1.10
2022-09-22T20:10:19.298Z,1.23
2022-09-22T20:12:47.000Z,1.40
2022-09-22T20:15:15.823Z,0.98
2022-09-22T20:17:46.216Z,1.60
2022-09-22T20:20:16.150Z,1.17
2022-09-22T20:22:46.488Z,1.23
2022-09-22T20:25:27.069Z,1.20
2022-09-22T20:27:56.226Z,0.90
2022-09-22T20:30:24.391Z,1.13
2022-09-22T20:32:52.217Z,1.20
2022-09-22T20:35:21.978Z,1.20
2022-09-22T20:37:49.728Z,1.30
2022-09-22T20:40:21.521Z,1.30
2022-09-22T20:42:50.922Z,1.10
2022-09-22T20:45:20.899Z,0.93
2022-09-22T20:47:49.132Z,1.15
2022-09-22T20:50:16.928Z,1.33
2022-09-22T20:52:44.499Z,1.10
2022-09-22T20:55:13.792Z,1.00
2022-09-22T20:57:41.471Z,2.00
2022-09-22T21:00:09.943Z,1.75
2022-09-22T21:02:37.582Z,1.80
2022-09-22T21:05:05.404Z,1.50
2022-09-22T21:07:33.172Z,1.20
2022-09-22T21:10:19.364Z,1.50
2022-09-22T21:12:47.449Z,1.45
2022-09-22T21:15:15.146Z,1.55
2022-09-22T21:17:44.004Z,1.38
2022-09-22T21:20:11.800Z,1.42
2022-09-22T21:22:39.279Z,1.70
2022-09-22T21:25:07.022Z,1.25
2022-09-22T21:27:37.107Z,1.50
2022-09-22T21:30:05.094Z,1.20
2022-09-22T21:32:33.253Z,1.55
2022-09-22T21:35:01.069Z,1.55
2022-09-22T21:37:28.650Z,1.60
2022-09-22T21:39:56.193Z,1.15
2022-09-22T21:42:23.726Z,1.60
2022-09-22T21:44:52.465Z,1.13
2022-09-22T21:47:20.346Z,1.35
2022-09-22T21:49:49.121Z,1.40
2022-09-22T21:52:17.527Z,1.55
2022-09-22T21:54:45.036Z,1.30
2022-09-22T21:57:12.481Z,1.33
2022-09-22T21:59:40.027Z,1.55
2022-09-22T22:02:07.513Z,1.35
2022-09-22T22:04:37.597Z,1.83
2022-09-22T22:07:05.380Z,1.42
2022-09-22T22:09:32.872Z,1.70
2022-09-22T22:12:00.501Z,1.50
2022-09-22T22:14:32.129Z,1.50
2022-09-22T22:17:02.340Z,1.25
2022-09-22T22:19:30.542Z,1.52
2022-09-22T22:21:58.144Z,1.50
2022-09-22T22:24:31.765Z,1.90
2022-09-22T22:27:09.805Z,1.60
2022-09-22T22:29:41.231Z,1.60
2022-09-22T22:32:10.838Z,1.58
2022-09-22T22:34:38.652Z,2.10
2022-09-22T22:37:09.723Z,1.98
2022-09-22T22:39:37.950Z,1.55
2022-09-22T22:42:06.018Z,1.55
2022-09-22T22:44:35.213Z,2.13
2022-09-22T22:47:02.977Z,1.60
2022-09-22T22:49:30.571Z,2.22
2022-09-22T22:51:58.016Z,1.90
2022-09-22T22:54:25.585Z,1.85
2022-09-22T22:56:53.070Z,1.73
2022-09-22T22:59:20.579Z,1.63
2022-09-22T23:01:48.137Z,1.80
2022-09-22T23:04:17.032Z,1.80
2022-09-22T23:06:44.839Z,1.60
2022-09-22T23:09:15.910Z,1.60
2022-09-22T23:11:43.986Z,1.92
2022-09-22T23:14:12.948Z,2.45
2022-09-22T23:16:46.137Z,1.85
2022-09-22T23:19:18.116Z,1.77
2022-09-22T23:21:46.437Z,1.73
2022-09-22T23:24:16.381Z,2.08
2022-09-22T23:26:45.152Z,1.42
2022-09-22T23:29:13.123Z,1.83
2022-09-22T23:31:40.679Z,1.50
2022-09-22T23:34:08.386Z,1.85
2022-09-22T23:36:36.251Z,1.20
2022-09-22T23:39:04.759Z,1.58
2022-09-22T23:41:36.919Z,1.50
2022-09-22T23:44:08.668Z,1.33
2022-09-22T23:46:38.352Z,1.92
2022-09-22T23:49:06.582Z,1.52
2022-09-22T23:51:34.041Z,1.80
2022-09-22T23:54:01.834Z,1.77
2022-09-22T23:56:29.575Z,1.50
2022-09-22T23:58:57.031Z,1.63
